Terminal Aerodrome Forecast
Issued by NWS Tulsa, OK

Home | Current Version | Previous Version | Text Only | Print | Product List | Glossary On
Versions: 1 2 3 4 5 6 7 8 9 10 11 12
000
FTUS44 KTSA 290500
TAFFSM
TAF
KFSM 290520Z 2906/3006 08013KT P6SM SKC
     FM291400 11010KT P6SM BKN250
     FM292100 22005KT P6SM BKN120
     FM300100 30007KT P6SM BKN070=

USA.gov is the U.S. government's official web portal to all federal, state and local government web resources and services.